createdAt,value
2022-08-16T00:01:04.347Z,71.13
2022-08-16T00:03:37.846Z,71.20
2022-08-16T00:06:04.816Z,70.71
2022-08-16T00:08:36.672Z,70.89
2022-08-16T00:11:15.544Z,69.83
2022-08-16T00:13:53.573Z,70.14
2022-08-16T00:17:06.559Z,71.78
2022-08-16T00:19:14.848Z,72.10
2022-08-16T00:21:43.938Z,72.10
2022-08-16T00:24:12.545Z,72.46
2022-08-16T00:26:44.952Z,72.79
2022-08-16T00:29:16.128Z,71.82
2022-08-16T00:31:58.957Z,72.21
2022-08-16T00:34:52.248Z,71.05
2022-08-16T00:37:16.940Z,70.96
2022-08-16T00:39:44.874Z,70.42
2022-08-16T00:42:11.693Z,70.81
2022-08-16T00:44:41.840Z,71.21
2022-08-16T00:47:16.335Z,70.99
2022-08-16T00:49:44.899Z,71.49
2022-08-16T00:52:29.205Z,71.38
2022-08-16T00:54:59.478Z,71.25
2022-08-16T00:57:55.511Z,70.98
2022-08-16T01:00:20.137Z,69.56
2022-08-16T01:02:51.027Z,70.39
2022-08-16T01:05:19.063Z,70.12
2022-08-16T01:07:53.454Z,71.17
2022-08-16T01:10:31.367Z,72.12
2022-08-16T01:13:04.560Z,71.38
2022-08-16T01:15:33.783Z,71.46
2022-08-16T01:18:02.298Z,71.62
2022-08-16T01:20:34.117Z,71.36
2022-08-16T01:23:14.151Z,70.57
2022-08-16T01:25:59.732Z,70.81
2022-08-16T01:28:38.768Z,70.23
2022-08-16T01:31:14.551Z,69.62
2022-08-16T01:33:44.488Z,69.35
2022-08-16T01:36:13.133Z,68.88
2022-08-16T01:38:49.174Z,69.54
2022-08-16T01:41:23.926Z,69.38
2022-08-16T01:43:54.610Z,68.84
2022-08-16T01:46:40.166Z,69.25
2022-08-16T01:49:43.267Z,69.42
2022-08-16T01:52:29.967Z,69.13
2022-08-16T01:55:24.636Z,68.61
2022-08-16T01:57:56.222Z,67.90
2022-08-16T02:00:28.953Z,68.17
2022-08-16T02:02:58.061Z,68.17
2022-08-16T02:05:24.781Z,68.38
2022-08-16T02:07:52.306Z,68.93
2022-08-16T02:10:20.805Z,68.98
2022-08-16T02:12:52.583Z,69.78
2022-08-16T02:15:26.502Z,68.52
2022-08-16T02:17:56.530Z,69.31
2022-08-16T02:20:26.135Z,68.01
2022-08-16T02:22:57.060Z,68.49
2022-08-16T02:25:24.544Z,68.19
2022-08-16T02:27:51.810Z,68.48
2022-08-16T02:30:37.485Z,68.98
2022-08-16T02:33:12.017Z,69.01
2022-08-16T02:35:49.951Z,68.86
2022-08-16T02:38:23.951Z,68.62
2022-08-16T02:40:51.511Z,67.75
2022-08-16T02:43:21.343Z,67.96
2022-08-16T02:45:54.944Z,68.54
2022-08-16T02:48:29.727Z,69.10
2022-08-16T02:51:10.456Z,69.17
2022-08-16T02:53:43.881Z,69.59
2022-08-16T02:56:14.962Z,68.50
2022-08-16T02:58:48.201Z,69.46
2022-08-16T03:01:25.324Z,70.03
2022-08-16T03:04:41.538Z,69.82
2022-08-16T03:06:57.537Z,69.16
2022-08-16T03:09:37.856Z,70.11
2022-08-16T03:12:05.888Z,70.85
2022-08-16T03:14:34.433Z,69.90
2022-08-16T03:17:04.147Z,69.99
2022-08-16T03:19:46.953Z,69.88
2022-08-16T03:22:19.280Z,69.80
2022-08-16T03:25:01.442Z,69.00
2022-08-16T03:27:32.683Z,68.38
2022-08-16T03:30:25.233Z,68.34
2022-08-16T03:32:56.943Z,67.74
2022-08-16T03:35:32.713Z,67.99
2022-08-16T03:38:32.772Z,67.55
2022-08-16T03:40:59.635Z,67.56
2022-08-16T03:43:51.224Z,67.09
2022-08-16T03:46:47.799Z,67.69
2022-08-16T03:49:12.275Z,67.18
2022-08-16T03:51:42.681Z,67.87
2022-08-16T03:54:13.647Z,66.99
2022-08-16T03:56:57.053Z,67.34
2022-08-16T03:59:29.386Z,67.26
2022-08-16T04:02:02.024Z,67.35
2022-08-16T04:04:33.572Z,67.07
2022-08-16T04:07:05.773Z,67.70
2022-08-16T04:09:37.870Z,67.23
2022-08-16T04:12:08.646Z,67.23
2022-08-16T04:14:46.691Z,67.72
2022-08-16T04:17:24.232Z,67.67
2022-08-16T04:19:54.941Z,67.42
2022-08-16T04:22:27.349Z,67.65
2022-08-16T04:24:59.476Z,67.50
2022-08-16T04:27:33.065Z,67.72
2022-08-16T04:30:03.142Z,67.92
2022-08-16T04:32:33.325Z,68.50
2022-08-16T04:35:07.583Z,67.83
2022-08-16T04:37:42.283Z,68.31
2022-08-16T04:40:21.570Z,67.37
2022-08-16T04:42:52.651Z,67.54
2022-08-16T04:45:36.707Z,67.79
2022-08-16T04:48:21.814Z,67.45
2022-08-16T04:50:59.281Z,67.33
2022-08-16T04:53:33.946Z,67.11
2022-08-16T04:56:00.916Z,67.25
2022-08-16T04:58:44.058Z,67.02
2022-08-16T05:01:15.255Z,66.80
2022-08-16T05:04:00.597Z,66.78
2022-08-16T05:06:42.110Z,67.25
2022-08-16T05:09:23.221Z,67.17
2022-08-16T05:11:57.426Z,66.79
2022-08-16T05:14:45.459Z,66.92
2022-08-16T05:17:24.600Z,67.83
2022-08-16T05:19:57.393Z,67.13
2022-08-16T05:22:28.488Z,67.02
2022-08-16T05:24:58.831Z,66.73
2022-08-16T05:27:26.292Z,66.14
2022-08-16T05:29:59.375Z,66.59
2022-08-16T05:32:36.296Z,66.71
2022-08-16T05:35:11.050Z,66.16
2022-08-16T05:37:43.938Z,65.89
2022-08-16T05:40:14.764Z,66.13
2022-08-16T05:42:46.171Z,65.02
2022-08-16T05:45:22.206Z,65.54
2022-08-16T05:48:00.384Z,66.25
2022-08-16T05:50:42.503Z,65.09
2022-08-16T05:53:10.060Z,63.94
2022-08-16T05:55:45.535Z,65.31
2022-08-16T05:58:31.615Z,64.60
2022-08-16T06:01:00.510Z,63.49
2022-08-16T06:03:29.754Z,63.93
2022-08-16T06:06:01.948Z,63.45
2022-08-16T06:08:42.347Z,64.83
2022-08-16T06:11:15.085Z,63.59
2022-08-16T06:13:47.482Z,63.97
2022-08-16T06:16:19.384Z,64.00
2022-08-16T06:18:52.402Z,64.31
2022-08-16T06:21:22.869Z,63.89
2022-08-16T06:23:56.084Z,63.88
2022-08-16T06:26:24.108Z,63.41
2022-08-16T06:29:04.618Z,63.17
2022-08-16T06:31:46.744Z,63.67
2022-08-16T06:34:55.665Z,62.03
2022-08-16T06:37:05.598Z,62.63
2022-08-16T06:39:49.866Z,62.32
2022-08-16T06:42:47.087Z,62.07
2022-08-16T06:45:29.764Z,61.73
2022-08-16T06:48:07.486Z,62.79
2022-08-16T06:50:36.896Z,62.38
2022-08-16T06:53:08.924Z,61.00
2022-08-16T06:55:43.204Z,61.87
2022-08-16T06:58:22.166Z,60.72
2022-08-16T07:00:55.784Z,60.57
2022-08-16T07:03:32.744Z,60.40
2022-08-16T07:06:14.739Z,60.35
2022-08-16T07:08:44.263Z,60.54
2022-08-16T07:11:10.994Z,60.90
2022-08-16T07:16:27.774Z,60.01
2022-08-16T07:18:59.133Z,60.43
2022-08-16T07:21:28.317Z,59.65
2022-08-16T07:24:30.274Z,59.88
2022-08-16T07:27:04.566Z,57.59
2022-08-16T07:29:36.993Z,57.33
2022-08-16T07:32:08.238Z,57.55
2022-08-16T07:34:37.606Z,57.86
2022-08-16T07:37:15.677Z,56.84
2022-08-16T07:40:11.636Z,55.66
2022-08-16T07:42:43.304Z,54.86
2022-08-16T07:45:12.571Z,55.75
2022-08-16T07:47:45.146Z,55.60
2022-08-16T07:50:54.954Z,54.29
2022-08-16T07:53:04.216Z,54.02
2022-08-16T07:55:46.046Z,55.05
2022-08-16T07:58:35.023Z,54.63
2022-08-16T08:01:10.441Z,54.39
2022-08-16T08:03:48.966Z,53.67
2022-08-16T08:06:21.297Z,52.87
2022-08-16T08:08:57.494Z,51.70
2022-08-16T08:11:29.150Z,52.54
2022-08-16T08:14:03.271Z,53.81
2022-08-16T08:16:33.922Z,52.95
2022-08-16T08:19:04.148Z,52.04
2022-08-16T08:22:00.082Z,51.60
2022-08-16T08:24:32.009Z,52.11
2022-08-16T08:27:04.293Z,51.23
2022-08-16T08:29:37.390Z,51.15
2022-08-16T08:33:00.060Z,51.24
2022-08-16T08:35:03.741Z,51.31
2022-08-16T08:37:53.855Z,50.08
2022-08-16T08:40:26.719Z,50.75
2022-08-16T08:43:00.209Z,49.85
2022-08-16T08:45:46.979Z,49.39
2022-08-16T08:48:32.752Z,50.15
2022-08-16T08:51:03.922Z,48.35
2022-08-16T08:53:32.713Z,47.84
2022-08-16T08:56:22.464Z,48.73
2022-08-16T08:58:54.728Z,47.23
2022-08-16T09:01:42.688Z,46.76
2022-08-16T09:04:23.306Z,46.39
2022-08-16T09:06:50.727Z,46.47
2022-08-16T09:09:19.387Z,45.73
2022-08-16T09:12:03.940Z,46.62
2022-08-16T09:14:38.729Z,45.35
2022-08-16T09:17:26.204Z,45.02
2022-08-16T09:20:04.660Z,45.23
2022-08-16T09:22:32.968Z,44.69
2022-08-16T09:25:09.668Z,45.45
2022-08-16T09:27:46.728Z,43.94
2022-08-16T09:30:34.333Z,45.59
2022-08-16T09:33:06.520Z,44.36
2022-08-16T09:35:38.623Z,45.12
2022-08-16T09:38:08.484Z,44.62
2022-08-16T09:40:42.724Z,43.19
2022-08-16T09:43:53.213Z,42.51
2022-08-16T09:46:48.083Z,41.90
2022-08-16T09:48:56.464Z,43.46
2022-08-16T09:51:30.646Z,43.02
2022-08-16T09:53:57.809Z,41.65
2022-08-16T09:56:34.940Z,43.18
2022-08-16T09:59:07.358Z,43.52
2022-08-16T10:01:45.895Z,43.31
2022-08-16T10:04:34.224Z,42.31
2022-08-16T10:07:15.290Z,43.37
2022-08-16T10:09:55.095Z,42.91
2022-08-16T10:12:55.936Z,42.51
2022-08-16T10:15:30.233Z,42.23
2022-08-16T10:18:01.381Z,41.46
2022-08-16T10:20:37.779Z,42.20
2022-08-16T10:23:07.958Z,41.49
2022-08-16T10:27:17.620Z,41.42
2022-08-16T10:28:32.276Z,39.62
2022-08-16T10:31:04.280Z,40.20
2022-08-16T10:33:33.248Z,38.95
2022-08-16T10:36:04.391Z,39.04
2022-08-16T10:38:33.209Z,40.80
2022-08-16T10:41:07.965Z,39.70
2022-08-16T10:43:38.901Z,39.15
2022-08-16T10:46:39.396Z,38.54
2022-08-16T10:48:58.655Z,37.57
2022-08-16T10:51:34.238Z,37.62
2022-08-16T10:54:21.218Z,37.66
2022-08-16T10:56:57.640Z,36.38
2022-08-16T10:59:44.626Z,37.28
2022-08-16T11:02:57.956Z,35.95
2022-08-16T11:05:08.555Z,35.28
2022-08-16T11:07:45.563Z,32.44
2022-08-16T11:17:02.200Z,28.57
2022-08-16T11:19:05.730Z,26.69
2022-08-16T11:22:22.439Z,27.33
2022-08-16T11:24:39.802Z,24.46
2022-08-16T11:27:23.009Z,22.68
2022-08-16T11:29:53.162Z,22.63
2022-08-16T11:32:30.109Z,22.57
2022-08-16T11:35:16.204Z,22.85
2022-08-16T11:38:24.020Z,22.92
2022-08-16T11:40:52.252Z,24.26
2022-08-16T11:43:24.864Z,22.83
2022-08-16T11:45:54.747Z,22.04
2022-08-16T11:48:25.901Z,23.51
2022-08-16T11:50:53.304Z,26.85
2022-08-16T11:53:21.947Z,28.76
2022-08-16T11:55:54.510Z,27.29
2022-08-16T11:58:24.478Z,27.70
2022-08-16T12:00:53.319Z,28.65
2022-08-16T12:03:34.712Z,28.96
2022-08-16T12:06:10.859Z,29.98
2022-08-16T12:08:52.586Z,31.22
2022-08-16T12:11:19.622Z,32.84
2022-08-16T12:13:49.300Z,32.94
2022-08-16T12:16:20.598Z,31.89
2022-08-16T12:21:19.644Z,32.49
2022-08-16T12:23:46.450Z,33.65
2022-08-16T12:26:13.336Z,32.02
2022-08-16T12:28:54.945Z,30.82
2022-08-16T12:31:23.252Z,31.01
2022-08-16T12:33:50.764Z,30.51
2022-08-16T12:36:21.420Z,30.32
2022-08-16T12:38:48.932Z,30.12
2022-08-16T12:41:24.325Z,31.46
2022-08-16T12:43:52.196Z,31.27
2022-08-16T12:46:18.959Z,31.50
2022-08-16T12:49:01.136Z,31.80
2022-08-16T12:51:59.046Z,30.47
2022-08-16T12:54:26.827Z,28.92
2022-08-16T12:56:53.690Z,26.82
2022-08-16T12:59:23.570Z,26.57
2022-08-16T13:01:58.308Z,26.53
2022-08-16T13:04:26.489Z,26.56
2022-08-16T13:06:53.437Z,24.87
2022-08-16T13:09:26.062Z,25.04
2022-08-16T13:12:20.102Z,26.22
2022-08-16T13:14:49.902Z,27.55
2022-08-16T13:17:21.364Z,26.89
2022-08-16T13:20:08.510Z,27.36
2022-08-16T13:22:46.866Z,26.24
2022-08-16T13:25:20.782Z,26.57
2022-08-16T13:28:01.557Z,26.77
2022-08-16T13:30:41.255Z,27.67
2022-08-16T13:33:12.557Z,27.76
2022-08-16T13:35:42.970Z,27.52
2022-08-16T13:38:24.535Z,25.68
2022-08-16T13:40:56.002Z,25.60
2022-08-16T13:43:26.460Z,26.68
2022-08-16T13:45:55.413Z,22.57
2022-08-16T13:48:25.144Z,22.21
2022-08-16T13:50:54.937Z,21.94
2022-08-16T13:53:24.996Z,22.70
2022-08-16T13:55:59.017Z,23.49
2022-08-16T13:58:36.979Z,23.69
2022-08-16T14:01:14.966Z,22.09
2022-08-16T14:03:44.748Z,21.01
2022-08-16T14:06:14.135Z,20.63
2022-08-16T14:08:43.184Z,19.54
2022-08-16T14:11:14.857Z,19.22
2022-08-16T14:13:43.880Z,19.61
2022-08-16T14:16:23.546Z,20.34
2022-08-16T14:18:52.881Z,19.35
2022-08-16T14:21:21.867Z,19.32
2022-08-16T14:23:52.434Z,19.47
2022-08-16T14:26:21.396Z,19.50
2022-08-16T14:28:53.062Z,20.49
2022-08-16T14:31:21.661Z,20.16
2022-08-16T14:33:50.428Z,20.98
2022-08-16T14:36:18.491Z,20.39
2022-08-16T14:38:51.950Z,21.40
2022-08-16T14:41:18.706Z,20.28
2022-08-16T14:43:45.392Z,21.05
2022-08-16T14:46:12.484Z,19.75
2022-08-16T14:48:39.191Z,22.79
2022-08-16T14:51:06.042Z,20.98
2022-08-16T14:53:33.355Z,21.79
2022-08-16T14:56:00.033Z,21.99
2022-08-16T14:58:34.796Z,21.85
2022-08-16T15:01:05.878Z,21.59
2022-08-16T15:03:33.088Z,23.44
2022-08-16T15:06:04.189Z,24.29
2022-08-16T15:08:34.029Z,23.85
2022-08-16T15:11:04.855Z,25.11
2022-08-16T15:13:31.545Z,25.17
2022-08-16T15:16:02.503Z,25.62
2022-08-16T15:18:32.327Z,25.64
2022-08-16T15:21:01.794Z,26.78
2022-08-16T15:23:28.588Z,27.75
2022-08-16T15:26:03.107Z,28.91
2022-08-16T15:28:33.196Z,29.28
2022-08-16T15:31:03.192Z,29.70
2022-08-16T15:33:33.062Z,29.35
2022-08-16T15:36:00.650Z,30.44
2022-08-16T15:38:55.323Z,30.48
2022-08-16T15:41:42.900Z,29.80
2022-08-16T15:44:17.854Z,30.25
2022-08-16T15:46:55.262Z,29.88
2022-08-16T15:49:22.785Z,31.50
2022-08-16T15:51:54.170Z,30.98
2022-08-16T15:54:30.743Z,30.73
2022-08-16T15:57:11.522Z,30.63
2022-08-16T15:59:49.208Z,30.59
2022-08-16T16:02:29.215Z,30.95
2022-08-16T16:05:00.856Z,32.08
2022-08-16T16:07:30.263Z,30.86
2022-08-16T16:09:59.201Z,30.96
2022-08-16T16:15:17.597Z,33.19
2022-08-16T16:17:51.247Z,32.31
2022-08-16T16:20:27.536Z,31.75
2022-08-16T16:22:59.657Z,32.22
2022-08-16T16:25:28.286Z,30.61
2022-08-16T16:27:59.887Z,30.70
2022-08-16T16:30:38.248Z,31.15
2022-08-16T16:33:21.181Z,31.12
2022-08-16T16:35:54.946Z,31.52
2022-08-16T16:38:26.538Z,32.28
2022-08-16T16:40:54.619Z,30.06
2022-08-16T16:43:25.481Z,30.97
2022-08-16T16:45:58.399Z,29.48
2022-08-16T16:48:34.529Z,29.27
2022-08-16T16:51:09.724Z,29.73
2022-08-16T16:53:41.340Z,28.33
2022-08-16T16:56:20.435Z,30.04
2022-08-16T16:58:57.960Z,30.00
2022-08-16T17:01:41.215Z,29.40
2022-08-16T17:04:27.415Z,29.65
2022-08-16T17:06:59.170Z,29.37
2022-08-16T17:09:26.059Z,29.97
2022-08-16T17:11:55.481Z,29.97
2022-08-16T17:14:32.944Z,29.53
2022-08-16T17:17:09.298Z,30.08
2022-08-16T17:19:40.883Z,30.43
2022-08-16T17:22:14.288Z,30.28
2022-08-16T17:24:50.362Z,30.57
2022-08-16T17:27:18.375Z,30.08
2022-08-16T17:29:58.889Z,30.32
2022-08-16T17:32:33.732Z,30.22
2022-08-16T17:35:18.384Z,32.10
2022-08-16T17:39:28.182Z,31.64
2022-08-16T17:40:50.475Z,32.31
2022-08-16T17:43:36.033Z,32.50
2022-08-16T17:46:04.776Z,33.43
2022-08-16T17:48:31.897Z,34.69
2022-08-16T17:50:59.922Z,35.50
2022-08-16T17:53:27.442Z,36.56
2022-08-16T17:55:54.659Z,39.62
2022-08-16T17:58:24.162Z,37.58
2022-08-16T18:00:54.733Z,36.67
2022-08-16T18:04:02.414Z,35.14
2022-08-16T18:06:18.582Z,38.19
2022-08-16T18:08:48.840Z,40.05
2022-08-16T18:11:26.148Z,39.14
2022-08-16T18:13:54.300Z,41.00
2022-08-16T18:16:21.001Z,41.56
2022-08-16T18:18:47.681Z,41.97
2022-08-16T18:21:34.082Z,43.93
2022-08-16T18:24:00.920Z,41.38
2022-08-16T18:26:27.457Z,41.59
2022-08-16T18:28:54.275Z,40.40
2022-08-16T18:31:20.908Z,43.07
2022-08-16T18:33:47.681Z,43.16
2022-08-16T18:36:20.420Z,43.49
2022-08-16T18:38:48.632Z,42.10
2022-08-16T18:41:15.377Z,44.33
2022-08-16T18:44:23.465Z,43.58
2022-08-16T18:46:28.829Z,44.62
2022-08-16T18:48:55.437Z,45.94
2022-08-16T18:51:25.260Z,45.91
2022-08-16T18:53:52.920Z,44.63
2022-08-16T18:56:19.745Z,45.41
2022-08-16T18:58:46.327Z,43.16
2022-08-16T19:01:13.139Z,46.39
2022-08-16T19:03:39.916Z,46.90
2022-08-16T19:06:13.191Z,43.89
2022-08-16T19:08:43.497Z,45.58
2022-08-16T19:11:13.958Z,45.79
2022-08-16T19:13:44.320Z,45.98
2022-08-16T19:16:13.274Z,47.18
2022-08-16T19:18:40.501Z,47.01
2022-08-16T19:21:08.649Z,47.22
2022-08-16T19:23:37.094Z,49.00
2022-08-16T19:26:07.876Z,50.13
2022-08-16T19:28:58.079Z,49.94
2022-08-16T19:31:27.790Z,47.30
2022-08-16T19:33:56.820Z,48.35
2022-08-16T19:36:33.964Z,51.63
2022-08-16T19:39:07.039Z,51.93
2022-08-16T19:41:41.245Z,50.52
2022-08-16T19:44:08.699Z,51.15
2022-08-16T19:46:35.857Z,50.52
2022-08-16T19:49:04.544Z,51.38
2022-08-16T19:51:31.370Z,52.20
2022-08-16T19:53:58.164Z,54.74
2022-08-16T19:56:26.810Z,53.38
2022-08-16T20:01:43.097Z,53.07
2022-08-16T20:04:12.743Z,53.57
2022-08-16T20:06:41.162Z,54.00
2022-08-16T20:09:07.911Z,54.86
2022-08-16T20:11:37.223Z,54.70
2022-08-16T20:14:03.945Z,53.66
2022-08-16T20:16:30.642Z,55.72
2022-08-16T20:18:57.343Z,56.72
2022-08-16T20:21:24.323Z,56.40
2022-08-16T20:23:51.075Z,56.17
2022-08-16T20:26:18.920Z,55.72
2022-08-16T20:28:54.315Z,55.46
2022-08-16T20:31:25.520Z,56.15
2022-08-16T20:33:53.153Z,55.93
2022-08-16T20:36:19.887Z,56.01
2022-08-16T20:38:47.958Z,56.19
2022-08-16T20:41:16.391Z,55.26
2022-08-16T20:43:43.850Z,56.26
2022-08-16T20:46:12.432Z,56.48
2022-08-16T20:48:39.077Z,56.93
2022-08-16T20:51:06.869Z,56.21
2022-08-16T20:53:34.109Z,57.11
2022-08-16T20:56:00.785Z,57.47
2022-08-16T20:58:27.564Z,58.00
2022-08-16T21:00:54.273Z,58.20
2022-08-16T21:03:21.132Z,57.76
2022-08-16T21:05:47.758Z,58.81
2022-08-16T21:08:50.169Z,58.30
2022-08-16T21:11:03.922Z,58.22
2022-08-16T21:13:33.876Z,58.52
2022-08-16T21:16:02.261Z,58.88
2022-08-16T21:18:29.070Z,58.29
2022-08-16T21:20:56.233Z,58.37
2022-08-16T21:23:22.784Z,58.31
2022-08-16T21:25:59.133Z,58.29
2022-08-16T21:28:41.910Z,59.28
2022-08-16T21:31:15.054Z,59.15
2022-08-16T21:33:43.246Z,58.65
2022-08-16T21:36:11.264Z,57.62
2022-08-16T21:38:39.896Z,56.85
2022-08-16T21:41:08.453Z,57.61
2022-08-16T21:43:35.230Z,57.87
2022-08-16T21:46:04.118Z,57.97
2022-08-16T21:48:34.380Z,58.58
2022-08-16T21:51:09.369Z,59.85
2022-08-16T21:53:37.722Z,60.57
2022-08-16T21:56:05.175Z,59.58
2022-08-16T21:58:32.455Z,59.40
2022-08-16T22:00:59.926Z,58.44
2022-08-16T22:03:26.672Z,59.25
2022-08-16T22:06:11.747Z,58.99
2022-08-16T22:08:50.376Z,59.25
2022-08-16T22:11:19.681Z,59.42
2022-08-16T22:13:51.246Z,59.59
2022-08-16T22:16:28.094Z,59.70
2022-08-16T22:18:54.810Z,59.87
2022-08-16T22:21:21.570Z,60.07
2022-08-16T22:23:56.734Z,59.95
2022-08-16T22:26:29.902Z,59.76
2022-08-16T22:29:03.425Z,60.32
2022-08-16T22:31:31.229Z,60.76
2022-08-16T22:33:58.037Z,60.50
2022-08-16T22:36:28.125Z,60.85
2022-08-16T22:39:00.282Z,60.91
2022-08-16T22:41:28.845Z,59.97
2022-08-16T22:43:56.052Z,59.96
2022-08-16T22:46:22.693Z,59.85
2022-08-16T22:48:50.578Z,60.23
2022-08-16T22:51:22.607Z,60.34
2022-08-16T22:53:49.960Z,60.53
2022-08-16T22:56:17.567Z,60.18
2022-08-16T22:58:45.412Z,60.32
2022-08-16T23:01:12.857Z,61.28
2022-08-16T23:03:40.407Z,60.74
2022-08-16T23:06:07.265Z,61.31
2022-08-16T23:08:40.641Z,60.58
2022-08-16T23:11:10.654Z,61.15
2022-08-16T23:13:38.386Z,61.33
2022-08-16T23:16:33.299Z,62.69
2022-08-16T23:19:11.299Z,62.27
2022-08-16T23:21:41.457Z,61.09
2022-08-16T23:24:08.730Z,62.33
2022-08-16T23:26:47.934Z,61.29
2022-08-16T23:29:25.261Z,61.70
2022-08-16T23:32:10.947Z,62.66
2022-08-16T23:34:37.683Z,62.02
2022-08-16T23:37:06.722Z,62.33
2022-08-16T23:39:33.557Z,62.11
2022-08-16T23:42:00.794Z,62.78
2022-08-16T23:44:55.358Z,61.94
2022-08-16T23:47:14.157Z,62.40
2022-08-16T23:49:59.976Z,63.57
2022-08-16T23:52:53.877Z,62.95
2022-08-16T23:55:16.213Z,62.49
2022-08-16T23:57:43.740Z,62.49
